sensor_id;sensor_type;location;lat;lon;timestamp;temperature;humidity
3504;DHT22;1766;53.490;10.174;2023-05-10T00:01:52;21.00;28.90
3504;DHT22;1766;53.490;10.174;2023-05-10T00:03:54;21.10;29.00
3504;DHT22;1766;53.490;10.174;2023-05-10T00:05:56;21.10;29.00
3504;DHT22;1766;53.490;10.174;2023-05-10T00:07:58;21.00;29.00
3504;DHT22;1766;53.490;10.174;2023-05-10T00:10:01;21.00;29.10
3504;DHT22;1766;53.490;10.174;2023-05-10T00:12:03;20.90;29.10
3504;DHT22;1766;53.490;10.174;2023-05-10T00:14:05;20.90;29.20
3504;DHT22;1766;53.490;10.174;2023-05-10T00:16:07;20.90;29.20
3504;DHT22;1766;53.490;10.174;2023-05-10T00:18:09;20.90;29.20
3504;DHT22;1766;53.490;10.174;2023-05-10T00:20:11;20.90;29.30
3504;DHT22;1766;53.490;10.174;2023-05-10T00:22:13;20.80;29.30
3504;DHT22;1766;53.490;10.174;2023-05-10T00:24:15;20.80;29.30
3504;DHT22;1766;53.490;10.174;2023-05-10T00:26:18;20.90;29.40
3504;DHT22;1766;53.490;10.174;2023-05-10T00:28:20;20.70;29.30
3504;DHT22;1766;53.490;10.174;2023-05-10T00:30:22;20.80;29.50
3504;DHT22;1766;53.490;10.174;2023-05-10T00:32:24;20.70;29.40
3504;DHT22;1766;53.490;10.174;2023-05-10T00:34:25;20.80;29.50
3504;DHT22;1766;53.490;10.174;2023-05-10T00:36:27;20.70;29.50
3504;DHT22;1766;53.490;10.174;2023-05-10T00:38:29;20.70;29.50
3504;DHT22;1766;53.490;10.174;2023-05-10T00:40:31;20.70;29.70
3504;DHT22;1766;53.490;10.174;2023-05-10T00:42:34;20.60;29.60
3504;DHT22;1766;53.490;10.174;2023-05-10T00:44:36;20.60;29.60
3504;DHT22;1766;53.490;10.174;2023-05-10T00:46:38;20.60;29.70
3504;DHT22;1766;53.490;10.174;2023-05-10T00:48:40;20.60;29.80
3504;DHT22;1766;53.490;10.174;2023-05-10T00:50:42;20.70;29.90
3504;DHT22;1766;53.490;10.174;2023-05-10T00:52:43;20.60;29.80
3504;DHT22;1766;53.490;10.174;2023-05-10T00:54:46;20.50;29.80
3504;DHT22;1766;53.490;10.174;2023-05-10T00:56:48;20.50;29.90
3504;DHT22;1766;53.490;10.174;2023-05-10T00:58:51;20.40;29.80
3504;DHT22;1766;53.490;10.174;2023-05-10T01:00:54;20.50;29.90
3504;DHT22;1766;53.490;10.174;2023-05-10T01:02:58;20.50;30.00
3504;DHT22;1766;53.490;10.174;2023-05-10T01:05:00;20.50;30.00
3504;DHT22;1766;53.490;10.174;2023-05-10T01:07:03;20.40;30.00
3504;DHT22;1766;53.490;10.174;2023-05-10T01:09:05;20.40;30.00
3504;DHT22;1766;53.490;10.174;2023-05-10T01:11:07;20.40;30.00
3504;DHT22;1766;53.490;10.174;2023-05-10T01:13:10;20.30;30.00
3504;DHT22;1766;53.490;10.174;2023-05-10T01:15:15;20.40;30.20
3504;DHT22;1766;53.490;10.174;2023-05-10T01:17:17;20.30;30.20
3504;DHT22;1766;53.490;10.174;2023-05-10T01:19:22;20.30;30.10
3504;DHT22;1766;53.490;10.174;2023-05-10T01:21:32;20.30;30.30
3504;DHT22;1766;53.490;10.174;2023-05-10T01:23:59;20.30;30.40
3504;DHT22;1766;53.490;10.174;2023-05-10T01:26:31;20.20;30.30
3504;DHT22;1766;53.490;10.174;2023-05-10T01:29:14;20.20;30.30
3504;DHT22;1766;53.490;10.174;2023-05-10T01:31:37;20.20;30.30
3504;DHT22;1766;53.490;10.174;2023-05-10T01:33:57;20.20;30.30
3504;DHT22;1766;53.490;10.174;2023-05-10T01:36:05;20.20;30.40
3504;DHT22;1766;53.490;10.174;2023-05-10T01:38:16;20.10;30.50
3504;DHT22;1766;53.490;10.174;2023-05-10T01:40:27;20.10;30.70
3504;DHT22;1766;53.490;10.174;2023-05-10T01:42:37;20.10;30.70
3504;DHT22;1766;53.490;10.174;2023-05-10T01:44:46;20.10;30.80
3504;DHT22;1766;53.490;10.174;2023-05-10T01:46:58;20.00;30.80
3504;DHT22;1766;53.490;10.174;2023-05-10T01:49:08;20.00;30.90
3504;DHT22;1766;53.490;10.174;2023-05-10T01:51:11;19.90;30.90
3504;DHT22;1766;53.490;10.174;2023-05-10T01:53:13;19.90;31.00
3504;DHT22;1766;53.490;10.174;2023-05-10T01:55:21;19.90;31.20
3504;DHT22;1766;53.490;10.174;2023-05-10T01:57:26;19.80;31.20
3504;DHT22;1766;53.490;10.174;2023-05-10T01:59:33;19.90;31.30
3504;DHT22;1766;53.490;10.174;2023-05-10T02:01:40;19.80;31.20
3504;DHT22;1766;53.490;10.174;2023-05-10T02:03:43;19.80;31.30
3504;DHT22;1766;53.490;10.174;2023-05-10T02:05:48;19.80;31.40
3504;DHT22;1766;53.490;10.174;2023-05-10T02:07:51;19.70;31.40
3504;DHT22;1766;53.490;10.174;2023-05-10T02:09:53;19.70;31.50
3504;DHT22;1766;53.490;10.174;2023-05-10T02:12:13;19.80;31.60
3504;DHT22;1766;53.490;10.174;2023-05-10T02:14:16;19.70;31.50
3504;DHT22;1766;53.490;10.174;2023-05-10T02:16:23;19.70;31.60
3504;DHT22;1766;53.490;10.174;2023-05-10T02:18:27;19.60;31.50
3504;DHT22;1766;53.490;10.174;2023-05-10T02:20:31;19.70;31.60
3504;DHT22;1766;53.490;10.174;2023-05-10T02:22:35;19.60;31.60
3504;DHT22;1766;53.490;10.174;2023-05-10T02:24:38;19.50;31.50
3504;DHT22;1766;53.490;10.174;2023-05-10T02:26:42;19.60;31.60
3504;DHT22;1766;53.490;10.174;2023-05-10T02:28:45;19.60;31.70
3504;DHT22;1766;53.490;10.174;2023-05-10T02:30:47;19.60;31.70
3504;DHT22;1766;53.490;10.174;2023-05-10T02:32:50;19.50;31.70
3504;DHT22;1766;53.490;10.174;2023-05-10T02:34:53;19.50;31.80
3504;DHT22;1766;53.490;10.174;2023-05-10T02:36:58;19.40;31.70
3504;DHT22;1766;53.490;10.174;2023-05-10T02:39:01;19.40;31.80
3504;DHT22;1766;53.490;10.174;2023-05-10T02:41:04;19.40;31.90
3504;DHT22;1766;53.490;10.174;2023-05-10T02:43:10;19.40;32.00
3504;DHT22;1766;53.490;10.174;2023-05-10T02:45:17;19.40;32.00
3504;DHT22;1766;53.490;10.174;2023-05-10T02:47:21;19.40;32.00
3504;DHT22;1766;53.490;10.174;2023-05-10T02:49:23;19.40;32.00
3504;DHT22;1766;53.490;10.174;2023-05-10T02:51:28;19.30;31.90
3504;DHT22;1766;53.490;10.174;2023-05-10T02:53:36;19.30;32.10
3504;DHT22;1766;53.490;10.174;2023-05-10T02:55:41;19.30;32.10
3504;DHT22;1766;53.490;10.174;2023-05-10T02:57:50;19.30;32.20
3504;DHT22;1766;53.490;10.174;2023-05-10T02:59:54;19.20;32.20
3504;DHT22;1766;53.490;10.174;2023-05-10T03:01:56;19.20;32.10
3504;DHT22;1766;53.490;10.174;2023-05-10T03:03:58;19.30;32.20
3504;DHT22;1766;53.490;10.174;2023-05-10T03:06:00;19.30;32.30
3504;DHT22;1766;53.490;10.174;2023-05-10T03:08:03;19.20;32.30
3504;DHT22;1766;53.490;10.174;2023-05-10T03:10:08;19.10;32.20
3504;DHT22;1766;53.490;10.174;2023-05-10T03:12:25;19.20;32.40
3504;DHT22;1766;53.490;10.174;2023-05-10T03:14:41;19.20;32.50
3504;DHT22;1766;53.490;10.174;2023-05-10T03:16:52;19.20;32.50
3504;DHT22;1766;53.490;10.174;2023-05-10T03:19:04;19.20;32.60
3504;DHT22;1766;53.490;10.174;2023-05-10T03:21:10;19.20;32.70
3504;DHT22;1766;53.490;10.174;2023-05-10T03:23:21;19.10;32.50
3504;DHT22;1766;53.490;10.174;2023-05-10T03:25:26;19.10;32.60
3504;DHT22;1766;53.490;10.174;2023-05-10T03:27:30;19.20;32.70
3504;DHT22;1766;53.490;10.174;2023-05-10T03:29:33;19.10;32.70
3504;DHT22;1766;53.490;10.174;2023-05-10T03:31:35;19.20;32.70
3504;DHT22;1766;53.490;10.174;2023-05-10T03:33:46;19.20;32.80
3504;DHT22;1766;53.490;10.174;2023-05-10T03:35:48;19.20;32.90
3504;DHT22;1766;53.490;10.174;2023-05-10T03:37:50;19.20;32.80
3504;DHT22;1766;53.490;10.174;2023-05-10T03:39:52;19.30;32.90
3504;DHT22;1766;53.490;10.174;2023-05-10T03:41:55;19.10;32.80
3504;DHT22;1766;53.490;10.174;2023-05-10T03:43:56;19.10;32.80
3504;DHT22;1766;53.490;10.174;2023-05-10T03:45:58;19.10;32.90
3504;DHT22;1766;53.490;10.174;2023-05-10T03:48:00;19.10;33.00
3504;DHT22;1766;53.490;10.174;2023-05-10T03:50:02;19.10;33.00
3504;DHT22;1766;53.490;10.174;2023-05-10T03:52:04;19.20;33.20
3504;DHT22;1766;53.490;10.174;2023-05-10T03:54:06;19.10;33.10
3504;DHT22;1766;53.490;10.174;2023-05-10T03:56:08;19.10;33.10
3504;DHT22;1766;53.490;10.174;2023-05-10T03:58:12;19.10;33.10
3504;DHT22;1766;53.490;10.174;2023-05-10T04:00:14;19.10;33.10
3504;DHT22;1766;53.490;10.174;2023-05-10T04:02:16;19.10;33.30
3504;DHT22;1766;53.490;10.174;2023-05-10T04:04:18;19.00;33.10
3504;DHT22;1766;53.490;10.174;2023-05-10T04:06:21;19.10;33.20
3504;DHT22;1766;53.490;10.174;2023-05-10T04:08:22;19.10;33.20
3504;DHT22;1766;53.490;10.174;2023-05-10T04:10:24;19.10;33.10
3504;DHT22;1766;53.490;10.174;2023-05-10T04:12:32;19.10;33.10
3504;DHT22;1766;53.490;10.174;2023-05-10T04:14:35;19.10;33.20
3504;DHT22;1766;53.490;10.174;2023-05-10T04:16:37;19.10;33.20
3504;DHT22;1766;53.490;10.174;2023-05-10T04:18:39;19.00;33.10
3504;DHT22;1766;53.490;10.174;2023-05-10T04:20:41;19.10;33.30
3504;DHT22;1766;53.490;10.174;2023-05-10T04:22:42;19.00;33.40
3504;DHT22;1766;53.490;10.174;2023-05-10T04:24:44;19.00;33.40
3504;DHT22;1766;53.490;10.174;2023-05-10T04:26:46;19.10;33.50
3504;DHT22;1766;53.490;10.174;2023-05-10T04:28:48;19.10;33.50
3504;DHT22;1766;53.490;10.174;2023-05-10T04:30:51;19.10;33.50
3504;DHT22;1766;53.490;10.174;2023-05-10T04:32:52;19.10;33.50
3504;DHT22;1766;53.490;10.174;2023-05-10T04:34:54;19.00;33.50
3504;DHT22;1766;53.490;10.174;2023-05-10T04:36:56;19.10;33.50
3504;DHT22;1766;53.490;10.174;2023-05-10T04:38:58;19.20;33.60
3504;DHT22;1766;53.490;10.174;2023-05-10T04:41:08;19.20;33.50
3504;DHT22;1766;53.490;10.174;2023-05-10T04:43:10;19.10;33.60
3504;DHT22;1766;53.490;10.174;2023-05-10T04:45:12;19.20;33.50
3504;DHT22;1766;53.490;10.174;2023-05-10T04:47:16;18.20;32.80
3504;DHT22;1766;53.490;10.174;2023-05-10T04:49:18;19.20;33.60
3504;DHT22;1766;53.490;10.174;2023-05-10T04:51:19;19.30;33.70
3504;DHT22;1766;53.490;10.174;2023-05-10T04:53:21;19.20;33.70
3504;DHT22;1766;53.490;10.174;2023-05-10T04:55:23;19.30;33.80
3504;DHT22;1766;53.490;10.174;2023-05-10T04:57:25;19.30;33.70
3504;DHT22;1766;53.490;10.174;2023-05-10T04:59:27;19.40;33.90
3504;DHT22;1766;53.490;10.174;2023-05-10T05:01:29;19.40;33.80
3504;DHT22;1766;53.490;10.174;2023-05-10T05:03:32;19.40;33.80
3504;DHT22;1766;53.490;10.174;2023-05-10T05:05:33;19.40;33.70
3504;DHT22;1766;53.490;10.174;2023-05-10T05:07:35;19.50;33.80
3504;DHT22;1766;53.490;10.174;2023-05-10T05:09:37;19.60;34.40
3504;DHT22;1766;53.490;10.174;2023-05-10T05:11:39;19.60;33.70
3504;DHT22;1766;53.490;10.174;2023-05-10T05:13:41;19.70;33.70
3504;DHT22;1766;53.490;10.174;2023-05-10T05:15:43;19.70;33.70
3504;DHT22;1766;53.490;10.174;2023-05-10T05:17:44;19.70;33.70
3504;DHT22;1766;53.490;10.174;2023-05-10T05:19:48;19.80;33.70
3504;DHT22;1766;53.490;10.174;2023-05-10T05:21:49;19.90;33.80
3504;DHT22;1766;53.490;10.174;2023-05-10T05:23:51;20.10;33.80
3504;DHT22;1766;53.490;10.174;2023-05-10T05:25:53;20.00;33.70
3504;DHT22;1766;53.490;10.174;2023-05-10T05:27:55;20.10;33.70
3504;DHT22;1766;53.490;10.174;2023-05-10T05:29:57;20.20;33.50
3504;DHT22;1766;53.490;10.174;2023-05-10T05:31:59;20.20;33.50
3504;DHT22;1766;53.490;10.174;2023-05-10T05:34:01;20.30;33.40
3504;DHT22;1766;53.490;10.174;2023-05-10T05:36:05;20.30;33.40
3504;DHT22;1766;53.490;10.174;2023-05-10T05:38:07;20.40;33.50
3504;DHT22;1766;53.490;10.174;2023-05-10T05:40:12;20.40;33.20
3504;DHT22;1766;53.490;10.174;2023-05-10T05:42:14;20.50;33.30
3504;DHT22;1766;53.490;10.174;2023-05-10T05:44:17;20.60;33.20
3504;DHT22;1766;53.490;10.174;2023-05-10T05:46:19;20.70;33.10
3504;DHT22;1766;53.490;10.174;2023-05-10T05:48:21;20.70;33.00
3504;DHT22;1766;53.490;10.174;2023-05-10T05:50:23;20.80;33.00
3504;DHT22;1766;53.490;10.174;2023-05-10T05:52:26;20.90;33.00
3504;DHT22;1766;53.490;10.174;2023-05-10T05:54:28;20.90;32.90
3504;DHT22;1766;53.490;10.174;2023-05-10T05:56:30;21.00;32.90
3504;DHT22;1766;53.490;10.174;2023-05-10T05:58:32;21.10;32.80
3504;DHT22;1766;53.490;10.174;2023-05-10T06:00:34;21.20;32.80
3504;DHT22;1766;53.490;10.174;2023-05-10T06:02:36;21.20;32.80
3504;DHT22;1766;53.490;10.174;2023-05-10T06:04:38;21.30;32.80
3504;DHT22;1766;53.490;10.174;2023-05-10T06:06:39;21.40;32.70
3504;DHT22;1766;53.490;10.174;2023-05-10T06:08:42;21.50;32.70
3504;DHT22;1766;53.490;10.174;2023-05-10T06:10:44;21.50;32.50
3504;DHT22;1766;53.490;10.174;2023-05-10T06:12:46;21.50;32.60
3504;DHT22;1766;53.490;10.174;2023-05-10T06:14:48;21.70;32.60
3504;DHT22;1766;53.490;10.174;2023-05-10T06:16:49;21.70;32.50
3504;DHT22;1766;53.490;10.174;2023-05-10T06:18:51;21.70;32.40
3504;DHT22;1766;53.490;10.174;2023-05-10T06:20:53;21.80;32.40
3504;DHT22;1766;53.490;10.174;2023-05-10T06:22:55;21.80;32.30
3504;DHT22;1766;53.490;10.174;2023-05-10T06:24:58;21.80;32.20
3504;DHT22;1766;53.490;10.174;2023-05-10T06:26:59;21.80;32.10
3504;DHT22;1766;53.490;10.174;2023-05-10T06:29:02;21.90;32.10
3504;DHT22;1766;53.490;10.174;2023-05-10T06:31:04;21.90;32.00
3504;DHT22;1766;53.490;10.174;2023-05-10T06:33:06;22.00;32.00
3504;DHT22;1766;53.490;10.174;2023-05-10T06:35:08;22.00;31.90
3504;DHT22;1766;53.490;10.174;2023-05-10T06:37:10;22.10;32.00
3504;DHT22;1766;53.490;10.174;2023-05-10T06:39:12;22.20;32.00
3504;DHT22;1766;53.490;10.174;2023-05-10T06:41:15;22.30;32.00
3504;DHT22;1766;53.490;10.174;2023-05-10T06:43:17;22.40;31.90
3504;DHT22;1766;53.490;10.174;2023-05-10T06:45:19;22.50;31.90
3504;DHT22;1766;53.490;10.174;2023-05-10T06:47:21;22.60;31.90
3504;DHT22;1766;53.490;10.174;2023-05-10T06:49:23;22.70;31.80
3504;DHT22;1766;53.490;10.174;2023-05-10T06:51:24;22.60;31.50
3504;DHT22;1766;53.490;10.174;2023-05-10T06:53:26;22.70;31.60
3504;DHT22;1766;53.490;10.174;2023-05-10T06:55:28;22.80;31.60
3504;DHT22;1766;53.490;10.174;2023-05-10T06:57:34;22.80;31.50
3504;DHT22;1766;53.490;10.174;2023-05-10T06:59:36;22.80;31.60
3504;DHT22;1766;53.490;10.174;2023-05-10T07:01:38;22.80;31.50
3504;DHT22;1766;53.490;10.174;2023-05-10T07:03:40;22.80;31.50
3504;DHT22;1766;53.490;10.174;2023-05-10T07:05:41;22.90;31.60
3504;DHT22;1766;53.490;10.174;2023-05-10T07:07:43;22.90;32.00
3504;DHT22;1766;53.490;10.174;2023-05-10T07:09:45;23.00;31.60
3504;DHT22;1766;53.490;10.174;2023-05-10T07:11:47;23.00;31.60
3504;DHT22;1766;53.490;10.174;2023-05-10T07:13:50;23.10;31.70
3504;DHT22;1766;53.490;10.174;2023-05-10T07:15:52;23.20;31.70
3504;DHT22;1766;53.490;10.174;2023-05-10T07:17:54;23.30;31.70
3504;DHT22;1766;53.490;10.174;2023-05-10T07:19:55;23.30;31.60
3504;DHT22;1766;53.490;10.174;2023-05-10T07:21:57;23.40;31.70
3504;DHT22;1766;53.490;10.174;2023-05-10T07:23:59;23.40;31.60
3504;DHT22;1766;53.490;10.174;2023-05-10T07:26:01;23.50;31.40
3504;DHT22;1766;53.490;10.174;2023-05-10T07:28:03;23.50;31.20
3504;DHT22;1766;53.490;10.174;2023-05-10T07:30:08;23.60;31.20
3504;DHT22;1766;53.490;10.174;2023-05-10T07:32:10;23.60;31.10
3504;DHT22;1766;53.490;10.174;2023-05-10T07:34:12;23.70;31.00
3504;DHT22;1766;53.490;10.174;2023-05-10T07:36:13;23.80;30.90
3504;DHT22;1766;53.490;10.174;2023-05-10T07:38:15;23.80;30.70
3504;DHT22;1766;53.490;10.174;2023-05-10T07:40:18;23.90;30.60
3504;DHT22;1766;53.490;10.174;2023-05-10T07:42:23;23.90;30.50
3504;DHT22;1766;53.490;10.174;2023-05-10T07:44:24;24.00;30.30
3504;DHT22;1766;53.490;10.174;2023-05-10T07:46:28;24.20;30.40
3504;DHT22;1766;53.490;10.174;2023-05-10T07:48:29;24.20;30.20
3504;DHT22;1766;53.490;10.174;2023-05-10T07:50:31;24.20;30.00
3504;DHT22;1766;53.490;10.174;2023-05-10T07:52:33;24.30;30.00
3504;DHT22;1766;53.490;10.174;2023-05-10T07:54:35;24.30;30.00
3504;DHT22;1766;53.490;10.174;2023-05-10T07:56:37;24.40;30.00
3504;DHT22;1766;53.490;10.174;2023-05-10T07:58:40;24.30;30.00
3504;DHT22;1766;53.490;10.174;2023-05-10T08:00:41;24.30;29.90
3504;DHT22;1766;53.490;10.174;2023-05-10T08:02:44;24.30;29.80
3504;DHT22;1766;53.490;10.174;2023-05-10T08:04:46;24.30;29.80
3504;DHT22;1766;53.490;10.174;2023-05-10T08:06:48;24.20;29.90
3504;DHT22;1766;53.490;10.174;2023-05-10T08:08:50;24.30;30.00
3504;DHT22;1766;53.490;10.174;2023-05-10T08:10:54;24.30;30.10
3504;DHT22;1766;53.490;10.174;2023-05-10T08:12:55;24.40;30.10
3504;DHT22;1766;53.490;10.174;2023-05-10T08:14:58;24.50;30.10
3504;DHT22;1766;53.490;10.174;2023-05-10T08:17:00;24.50;30.10
3504;DHT22;1766;53.490;10.174;2023-05-10T08:19:03;24.50;30.00
3504;DHT22;1766;53.490;10.174;2023-05-10T08:21:05;24.50;30.10
3504;DHT22;1766;53.490;10.174;2023-05-10T08:23:07;24.60;30.20
3504;DHT22;1766;53.490;10.174;2023-05-10T08:25:09;24.60;30.00
3504;DHT22;1766;53.490;10.174;2023-05-10T08:27:10;24.60;30.00
3504;DHT22;1766;53.490;10.174;2023-05-10T08:29:12;24.70;30.00
3504;DHT22;1766;53.490;10.174;2023-05-10T08:31:15;24.80;30.00
3504;DHT22;1766;53.490;10.174;2023-05-10T08:33:17;24.90;30.10
3504;DHT22;1766;53.490;10.174;2023-05-10T08:35:21;25.00;30.10
3504;DHT22;1766;53.490;10.174;2023-05-10T08:37:23;25.00;30.00
3504;DHT22;1766;53.490;10.174;2023-05-10T08:39:25;25.00;29.90
3504;DHT22;1766;53.490;10.174;2023-05-10T08:41:28;25.10;30.00
3504;DHT22;1766;53.490;10.174;2023-05-10T08:43:31;25.20;30.00
3504;DHT22;1766;53.490;10.174;2023-05-10T08:45:36;25.30;30.00
3504;DHT22;1766;53.490;10.174;2023-05-10T08:47:39;25.30;30.00
3504;DHT22;1766;53.490;10.174;2023-05-10T08:49:42;25.50;30.00
3504;DHT22;1766;53.490;10.174;2023-05-10T08:51:51;25.70;30.00
3504;DHT22;1766;53.490;10.174;2023-05-10T08:53:56;25.80;30.00
3504;DHT22;1766;53.490;10.174;2023-05-10T08:55:58;25.90;29.80
3504;DHT22;1766;53.490;10.174;2023-05-10T08:58:00;25.90;29.60
3504;DHT22;1766;53.490;10.174;2023-05-10T09:00:02;26.00;29.60
3504;DHT22;1766;53.490;10.174;2023-05-10T09:02:05;26.10;29.60
3504;DHT22;1766;53.490;10.174;2023-05-10T09:04:07;26.00;29.40
3504;DHT22;1766;53.490;10.174;2023-05-10T09:06:11;26.00;29.40
3504;DHT22;1766;53.490;10.174;2023-05-10T09:08:16;26.00;29.50
3504;DHT22;1766;53.490;10.174;2023-05-10T09:10:19;25.90;29.40
3504;DHT22;1766;53.490;10.174;2023-05-10T09:12:28;25.90;29.40
3504;DHT22;1766;53.490;10.174;2023-05-10T09:14:30;25.90;29.40
3504;DHT22;1766;53.490;10.174;2023-05-10T09:16:36;25.80;29.40
3504;DHT22;1766;53.490;10.174;2023-05-10T09:18:37;25.70;29.40
3504;DHT22;1766;53.490;10.174;2023-05-10T09:20:39;25.60;29.40
3504;DHT22;1766;53.490;10.174;2023-05-10T09:22:41;25.60;29.50
3504;DHT22;1766;53.490;10.174;2023-05-10T09:24:44;25.70;29.50
3504;DHT22;1766;53.490;10.174;2023-05-10T09:26:47;25.60;29.60
3504;DHT22;1766;53.490;10.174;2023-05-10T09:28:51;25.60;29.60
3504;DHT22;1766;53.490;10.174;2023-05-10T09:30:53;25.60;29.70
3504;DHT22;1766;53.490;10.174;2023-05-10T09:32:57;25.60;29.80
3504;DHT22;1766;53.490;10.174;2023-05-10T09:35:06;25.60;29.90
3504;DHT22;1766;53.490;10.174;2023-05-10T09:37:09;25.50;30.00
3504;DHT22;1766;53.490;10.174;2023-05-10T09:39:11;25.50;29.90
3504;DHT22;1766;53.490;10.174;2023-05-10T09:41:18;25.50;30.00
3504;DHT22;1766;53.490;10.174;2023-05-10T09:43:21;25.30;30.10
3504;DHT22;1766;53.490;10.174;2023-05-10T09:45:23;25.30;30.20
3504;DHT22;1766;53.490;10.174;2023-05-10T09:47:26;25.10;30.30
3504;DHT22;1766;53.490;10.174;2023-05-10T09:49:28;25.00;30.30
3504;DHT22;1766;53.490;10.174;2023-05-10T09:51:30;24.90;30.60
3504;DHT22;1766;53.490;10.174;2023-05-10T09:53:32;24.80;30.80
3504;DHT22;1766;53.490;10.174;2023-05-10T09:55:42;24.70;31.10
3504;DHT22;1766;53.490;10.174;2023-05-10T09:57:48;24.50;31.40
3504;DHT22;1766;53.490;10.174;2023-05-10T09:59:50;24.40;31.60
3504;DHT22;1766;53.490;10.174;2023-05-10T10:01:56;24.30;31.80
3504;DHT22;1766;53.490;10.174;2023-05-10T10:04:01;24.20;32.10
3504;DHT22;1766;53.490;10.174;2023-05-10T10:06:07;24.10;32.30
3504;DHT22;1766;53.490;10.174;2023-05-10T10:08:10;24.10;32.70
3504;DHT22;1766;53.490;10.174;2023-05-10T10:10:12;24.00;33.00
3504;DHT22;1766;53.490;10.174;2023-05-10T10:12:14;24.00;33.30
3504;DHT22;1766;53.490;10.174;2023-05-10T10:14:18;23.90;33.40
3504;DHT22;1766;53.490;10.174;2023-05-10T10:16:20;23.70;33.70
3504;DHT22;1766;53.490;10.174;2023-05-10T10:18:22;23.70;34.30
3504;DHT22;1766;53.490;10.174;2023-05-10T10:20:28;23.40;34.70
3504;DHT22;1766;53.490;10.174;2023-05-10T10:22:30;23.30;35.40
3504;DHT22;1766;53.490;10.174;2023-05-10T10:24:32;23.10;36.00
3504;DHT22;1766;53.490;10.174;2023-05-10T10:26:35;23.00;36.50
3504;DHT22;1766;53.490;10.174;2023-05-10T10:28:44;22.80;36.90
3504;DHT22;1766;53.490;10.174;2023-05-10T10:30:52;22.80;37.30
3504;DHT22;1766;53.490;10.174;2023-05-10T10:33:06;22.70;37.60
3504;DHT22;1766;53.490;10.174;2023-05-10T10:35:15;22.60;38.00
3504;DHT22;1766;53.490;10.174;2023-05-10T10:37:17;22.50;38.10
3504;DHT22;1766;53.490;10.174;2023-05-10T10:39:20;22.60;38.60
3504;DHT22;1766;53.490;10.174;2023-05-10T10:41:29;22.50;38.80
3504;DHT22;1766;53.490;10.174;2023-05-10T10:43:32;22.50;39.20
3504;DHT22;1766;53.490;10.174;2023-05-10T10:45:33;22.40;39.10
3504;DHT22;1766;53.490;10.174;2023-05-10T10:47:37;22.20;39.40
3504;DHT22;1766;53.490;10.174;2023-05-10T10:49:43;22.20;39.90
3504;DHT22;1766;53.490;10.174;2023-05-10T10:54:28;22.10;40.50
3504;DHT22;1766;53.490;10.174;2023-05-10T10:56:29;22.20;40.50
3504;DHT22;1766;53.490;10.174;2023-05-10T10:58:32;22.20;40.60
3504;DHT22;1766;53.490;10.174;2023-05-10T11:00:36;22.20;40.90
3504;DHT22;1766;53.490;10.174;2023-05-10T11:02:45;22.30;41.20
3504;DHT22;1766;53.490;10.174;2023-05-10T11:04:49;22.30;41.40
3504;DHT22;1766;53.490;10.174;2023-05-10T11:06:50;22.50;41.50
3504;DHT22;1766;53.490;10.174;2023-05-10T11:09:17;22.60;41.80
3504;DHT22;1766;53.490;10.174;2023-05-10T11:11:21;22.80;42.30
3504;DHT22;1766;53.490;10.174;2023-05-10T11:13:28;22.80;41.80
3504;DHT22;1766;53.490;10.174;2023-05-10T11:15:31;22.70;41.80
3504;DHT22;1766;53.490;10.174;2023-05-10T11:17:34;22.80;42.00
3504;DHT22;1766;53.490;10.174;2023-05-10T11:22:16;22.90;42.50
3504;DHT22;1766;53.490;10.174;2023-05-10T11:24:20;23.00;42.10
3504;DHT22;1766;53.490;10.174;2023-05-10T11:26:24;23.10;42.50
3504;DHT22;1766;53.490;10.174;2023-05-10T11:28:27;23.10;42.60
3504;DHT22;1766;53.490;10.174;2023-05-10T11:30:29;23.00;42.60
3504;DHT22;1766;53.490;10.174;2023-05-10T11:32:32;23.10;42.90
3504;DHT22;1766;53.490;10.174;2023-05-10T11:34:34;23.10;42.80
3504;DHT22;1766;53.490;10.174;2023-05-10T11:36:37;23.10;42.90
3504;DHT22;1766;53.490;10.174;2023-05-10T11:38:39;23.20;43.00
3504;DHT22;1766;53.490;10.174;2023-05-10T11:40:41;23.20;43.00
3504;DHT22;1766;53.490;10.174;2023-05-10T11:42:42;23.40;43.20
3504;DHT22;1766;53.490;10.174;2023-05-10T11:44:45;23.40;43.20
3504;DHT22;1766;53.490;10.174;2023-05-10T11:46:49;23.40;43.20
3504;DHT22;1766;53.490;10.174;2023-05-10T11:48:53;23.40;43.30
3504;DHT22;1766;53.490;10.174;2023-05-10T11:50:57;23.50;43.40
3504;DHT22;1766;53.490;10.174;2023-05-10T11:53:00;23.50;43.30
3504;DHT22;1766;53.490;10.174;2023-05-10T11:55:02;23.50;43.30
3504;DHT22;1766;53.490;10.174;2023-05-10T11:57:04;23.60;43.50
3504;DHT22;1766;53.490;10.174;2023-05-10T11:59:06;23.60;43.90
3504;DHT22;1766;53.490;10.174;2023-05-10T12:01:09;23.70;43.50
3504;DHT22;1766;53.490;10.174;2023-05-10T12:03:11;23.70;43.60
3504;DHT22;1766;53.490;10.174;2023-05-10T12:05:13;23.80;43.60
3504;DHT22;1766;53.490;10.174;2023-05-10T12:07:15;23.80;43.50
3504;DHT22;1766;53.490;10.174;2023-05-10T12:09:19;24.00;43.60
3504;DHT22;1766;53.490;10.174;2023-05-10T12:11:24;24.00;43.70
3504;DHT22;1766;53.490;10.174;2023-05-10T12:13:28;24.00;43.70
3504;DHT22;1766;53.490;10.174;2023-05-10T12:15:30;24.10;43.70
3504;DHT22;1766;53.490;10.174;2023-05-10T12:17:32;24.20;43.70
3504;DHT22;1766;53.490;10.174;2023-05-10T12:19:37;24.20;43.50
3504;DHT22;1766;53.490;10.174;2023-05-10T12:21:39;24.30;43.50
3504;DHT22;1766;53.490;10.174;2023-05-10T12:23:42;24.30;43.40
3504;DHT22;1766;53.490;10.174;2023-05-10T12:25:45;24.40;43.60
3504;DHT22;1766;53.490;10.174;2023-05-10T12:27:55;24.40;43.60
3504;DHT22;1766;53.490;10.174;2023-05-10T12:29:59;24.50;43.70
3504;DHT22;1766;53.490;10.174;2023-05-10T12:32:01;24.60;43.60
3504;DHT22;1766;53.490;10.174;2023-05-10T12:34:03;24.70;43.50
3504;DHT22;1766;53.490;10.174;2023-05-10T12:36:06;24.80;43.30
3504;DHT22;1766;53.490;10.174;2023-05-10T12:38:24;24.80;43.40
3504;DHT22;1766;53.490;10.174;2023-05-10T12:40:27;24.90;43.40
3504;DHT22;1766;53.490;10.174;2023-05-10T12:42:31;25.10;43.20
3504;DHT22;1766;53.490;10.174;2023-05-10T12:44:32;25.10;43.10
3504;DHT22;1766;53.490;10.174;2023-05-10T12:46:34;25.20;43.20
3504;DHT22;1766;53.490;10.174;2023-05-10T12:48:37;25.40;43.30
3504;DHT22;1766;53.490;10.174;2023-05-10T12:50:40;25.40;43.10
3504;DHT22;1766;53.490;10.174;2023-05-10T12:52:42;25.60;43.00
3504;DHT22;1766;53.490;10.174;2023-05-10T12:54:44;25.60;42.80
3504;DHT22;1766;53.490;10.174;2023-05-10T12:56:45;25.60;42.70
3504;DHT22;1766;53.490;10.174;2023-05-10T12:58:48;25.60;42.70
3504;DHT22;1766;53.490;10.174;2023-05-10T13:00:51;25.70;42.70
3504;DHT22;1766;53.490;10.174;2023-05-10T13:02:53;25.80;42.80
3504;DHT22;1766;53.490;10.174;2023-05-10T13:04:55;25.80;42.80
3504;DHT22;1766;53.490;10.174;2023-05-10T13:06:57;25.90;42.80
3504;DHT22;1766;53.490;10.174;2023-05-10T13:08:59;25.90;42.70
3504;DHT22;1766;53.490;10.174;2023-05-10T13:11:01;26.00;42.40
3504;DHT22;1766;53.490;10.174;2023-05-10T13:13:03;25.90;42.40
3504;DHT22;1766;53.490;10.174;2023-05-10T13:15:07;25.90;42.30
3504;DHT22;1766;53.490;10.174;2023-05-10T13:17:10;25.90;42.50
3504;DHT22;1766;53.490;10.174;2023-05-10T13:19:12;25.90;42.40